LFOC

Châteaudun (BA 279) Airport

Châteaudun, France
TAF AMD LFOC 210430Z 2104/2203 36003KT 9999 BKN048
Issued Valid From Valid To
Aug-21 @ 04:30 UTC
(13 hours ago)
Aug-21 @ 04:00 UTC
(14 hours ago)
Aug-22 @ 03:00 UTC
(in 9 hours)
Aug-21 @ 04:00 to Aug-22 @ 03:00
TAF AMD LFOC 210430Z 2104/2203 36003KT 9999 BKN048
Wind Visibility Clouds
360° at 3 knots 10,000+ meters
  • Broken at 4,800' AGL
TAF AMD LFOC 210430Z 2104/2203 36003KT 9999 BKN048
Issued Aug-21 @ 04:30 UTC
(13 hours ago)
Valid From Aug-21 @ 04:00 UTC
(14 hours ago)
Valid To Aug-22 @ 03:00 UTC
(in 9 hours)
Aug-21 @ 04:00 - Aug-22 @ 03:00
Wind Visibility
360° at 3 knots 10,000+ meters
Clouds
  • Broken at 4,800' AGL